Strathcarron, United Kingdom
Current Conditions -  °F | °C
As of 7:20 AM on Thursday 23 Oct 2014 (Local Time) from EGPL Reporting Station
Rain Showers Rain Showers  
Wind Chill: 10°   Ceiling: 3000
Heat Index: 10°   Visibility: 6mi
Dew Point:   Wind: 18mph
Humidity: 94%   Direction: 240°WSW
Pressure: 29.65"   Gusts: NA
Location:  57.41°N, 5.81°W
Report Text: EGPL 230620Z 24016KT 9999 VCSH FEW012 SCT018 BKN030 10/09 Q1004
Loading
Personal Weather Stations






























Interactive Weather Map
Tropical Storm Tracking
New forecast layout! Learn more

10-Day Weather Forecast

Advertisements
Track Severe Weather on mobile